sensor_id;sensor_type;location;lat;lon;timestamp;temperature;humidity
75738;DHT22;64356;45.638;13.764;2022-10-17T00:01:13;22.50;64.50
75738;DHT22;64356;45.638;13.764;2022-10-17T00:03:39;22.50;63.90
75738;DHT22;64356;45.638;13.764;2022-10-17T00:06:10;22.50;63.90
75738;DHT22;64356;45.638;13.764;2022-10-17T00:08:37;22.50;63.90
75738;DHT22;64356;45.638;13.764;2022-10-17T00:11:05;22.50;63.90
75738;DHT22;64356;45.638;13.764;2022-10-17T00:13:32;22.50;63.90
75738;DHT22;64356;45.638;13.764;2022-10-17T00:15:58;22.50;63.80
75738;DHT22;64356;45.638;13.764;2022-10-17T00:18:24;22.50;63.80
75738;DHT22;64356;45.638;13.764;2022-10-17T00:20:50;22.50;63.80
75738;DHT22;64356;45.638;13.764;2022-10-17T00:23:16;22.50;63.80
75738;DHT22;64356;45.638;13.764;2022-10-17T00:25:42;22.50;63.80
75738;DHT22;64356;45.638;13.764;2022-10-17T00:28:09;22.50;63.70
75738;DHT22;64356;45.638;13.764;2022-10-17T00:30:35;22.50;63.70
75738;DHT22;64356;45.638;13.764;2022-10-17T00:33:01;22.50;63.70
75738;DHT22;64356;45.638;13.764;2022-10-17T00:35:27;22.50;63.70
75738;DHT22;64356;45.638;13.764;2022-10-17T00:37:52;22.50;63.70
75738;DHT22;64356;45.638;13.764;2022-10-17T00:40:18;22.50;63.70
75738;DHT22;64356;45.638;13.764;2022-10-17T00:42:44;22.50;63.60
75738;DHT22;64356;45.638;13.764;2022-10-17T00:45:14;22.50;63.60
75738;DHT22;64356;45.638;13.764;2022-10-17T00:47:40;22.50;63.60
75738;DHT22;64356;45.638;13.764;2022-10-17T00:50:07;22.50;63.70
75738;DHT22;64356;45.638;13.764;2022-10-17T00:52:33;22.50;63.50
75738;DHT22;64356;45.638;13.764;2022-10-17T00:55:06;22.50;63.60
75738;DHT22;64356;45.638;13.764;2022-10-17T00:57:33;22.50;63.50
75738;DHT22;64356;45.638;13.764;2022-10-17T01:00:01;22.50;63.60
75738;DHT22;64356;45.638;13.764;2022-10-17T01:02:28;22.50;63.50
75738;DHT22;64356;45.638;13.764;2022-10-17T01:04:55;22.50;63.50
75738;DHT22;64356;45.638;13.764;2022-10-17T01:07:24;22.50;63.50
75738;DHT22;64356;45.638;13.764;2022-10-17T01:09:50;22.50;63.50
75738;DHT22;64356;45.638;13.764;2022-10-17T01:20:36;22.50;63.50
75738;DHT22;64356;45.638;13.764;2022-10-17T01:31:51;22.50;63.40
75738;DHT22;64356;45.638;13.764;2022-10-17T01:34:26;22.50;63.40
75738;DHT22;64356;45.638;13.764;2022-10-17T01:37:03;22.50;63.40
75738;DHT22;64356;45.638;13.764;2022-10-17T01:39:52;22.50;63.40
75738;DHT22;64356;45.638;13.764;2022-10-17T01:42:40;22.50;63.40
75738;DHT22;64356;45.638;13.764;2022-10-17T01:45:47;22.50;63.40
75738;DHT22;64356;45.638;13.764;2022-10-17T01:48:10;22.50;63.40
75738;DHT22;64356;45.638;13.764;2022-10-17T01:50:42;22.50;63.40
75738;DHT22;64356;45.638;13.764;2022-10-17T01:53:13;22.50;63.40
75738;DHT22;64356;45.638;13.764;2022-10-17T01:55:43;22.50;63.30
75738;DHT22;64356;45.638;13.764;2022-10-17T01:58:15;22.50;63.40
75738;DHT22;64356;45.638;13.764;2022-10-17T02:00:43;22.50;63.40
75738;DHT22;64356;45.638;13.764;2022-10-17T02:03:14;22.50;63.40
75738;DHT22;64356;45.638;13.764;2022-10-17T02:05:41;22.50;63.30
75738;DHT22;64356;45.638;13.764;2022-10-17T02:08:08;22.50;63.30
75738;DHT22;64356;45.638;13.764;2022-10-17T02:10:57;22.50;63.30
75738;DHT22;64356;45.638;13.764;2022-10-17T02:13:34;22.50;63.40
75738;DHT22;64356;45.638;13.764;2022-10-17T02:16:08;22.50;63.30
75738;DHT22;64356;45.638;13.764;2022-10-17T02:18:56;22.50;63.20
75738;DHT22;64356;45.638;13.764;2022-10-17T02:21:52;22.50;63.20
75738;DHT22;64356;45.638;13.764;2022-10-17T02:25:13;22.50;63.30
75738;DHT22;64356;45.638;13.764;2022-10-17T02:30:13;22.50;63.20
75738;DHT22;64356;45.638;13.764;2022-10-17T02:32:45;22.50;63.20
75738;DHT22;64356;45.638;13.764;2022-10-17T02:35:14;22.50;63.20
75738;DHT22;64356;45.638;13.764;2022-10-17T02:37:41;22.40;63.10
75738;DHT22;64356;45.638;13.764;2022-10-17T02:40:10;22.50;63.20
75738;DHT22;64356;45.638;13.764;2022-10-17T02:42:37;22.50;63.20
75738;DHT22;64356;45.638;13.764;2022-10-17T02:45:04;22.40;63.10
75738;DHT22;64356;45.638;13.764;2022-10-17T02:47:34;22.50;63.20
75738;DHT22;64356;45.638;13.764;2022-10-17T02:50:01;22.50;63.20
75738;DHT22;64356;45.638;13.764;2022-10-17T02:52:36;22.40;63.10
75738;DHT22;64356;45.638;13.764;2022-10-17T03:00:14;22.50;63.10
75738;DHT22;64356;45.638;13.764;2022-10-17T03:02:47;22.40;63.00
75738;DHT22;64356;45.638;13.764;2022-10-17T03:05:21;22.50;63.10
75738;DHT22;64356;45.638;13.764;2022-10-17T03:07:47;22.50;63.10
75738;DHT22;64356;45.638;13.764;2022-10-17T03:10:13;22.50;63.00
75738;DHT22;64356;45.638;13.764;2022-10-17T03:12:39;22.40;62.90
75738;DHT22;64356;45.638;13.764;2022-10-17T03:15:05;22.40;62.90
75738;DHT22;64356;45.638;13.764;2022-10-17T03:17:31;22.50;63.00
75738;DHT22;64356;45.638;13.764;2022-10-17T03:19:57;22.50;63.00
75738;DHT22;64356;45.638;13.764;2022-10-17T03:22:23;22.40;62.90
75738;DHT22;64356;45.638;13.764;2022-10-17T03:24:49;22.40;62.90
75738;DHT22;64356;45.638;13.764;2022-10-17T03:27:14;22.40;62.90
75738;DHT22;64356;45.638;13.764;2022-10-17T03:29:40;22.40;62.90
75738;DHT22;64356;45.638;13.764;2022-10-17T03:32:06;22.40;62.80
75738;DHT22;64356;45.638;13.764;2022-10-17T03:34:31;22.40;62.80
75738;DHT22;64356;45.638;13.764;2022-10-17T03:36:57;22.40;62.80
75738;DHT22;64356;45.638;13.764;2022-10-17T03:39:23;22.40;62.80
75738;DHT22;64356;45.638;13.764;2022-10-17T03:41:48;22.40;62.70
75738;DHT22;64356;45.638;13.764;2022-10-17T03:44:14;22.40;62.80
75738;DHT22;64356;45.638;13.764;2022-10-17T03:46:40;22.40;62.70
75738;DHT22;64356;45.638;13.764;2022-10-17T03:49:05;22.40;62.70
75738;DHT22;64356;45.638;13.764;2022-10-17T03:51:35;22.40;62.70
75738;DHT22;64356;45.638;13.764;2022-10-17T03:54:01;22.40;62.70
75738;DHT22;64356;45.638;13.764;2022-10-17T03:56:26;22.40;62.70
75738;DHT22;64356;45.638;13.764;2022-10-17T03:58:54;22.40;62.70
75738;DHT22;64356;45.638;13.764;2022-10-17T04:01:20;22.40;63.20
75738;DHT22;64356;45.638;13.764;2022-10-17T04:03:50;22.40;63.20
75738;DHT22;64356;45.638;13.764;2022-10-17T04:06:16;22.40;62.70
75738;DHT22;64356;45.638;13.764;2022-10-17T04:08:42;22.40;62.60
75738;DHT22;64356;45.638;13.764;2022-10-17T04:11:09;22.40;62.70
75738;DHT22;64356;45.638;13.764;2022-10-17T04:13:37;22.40;62.70
75738;DHT22;64356;45.638;13.764;2022-10-17T04:16:05;22.40;62.70
75738;DHT22;64356;45.638;13.764;2022-10-17T04:18:31;22.40;62.70
75738;DHT22;64356;45.638;13.764;2022-10-17T04:20:57;22.40;62.60
75738;DHT22;64356;45.638;13.764;2022-10-17T04:23:25;22.40;62.70
75738;DHT22;64356;45.638;13.764;2022-10-17T04:25:59;22.40;62.60
75738;DHT22;64356;45.638;13.764;2022-10-17T04:28:26;22.40;62.60
75738;DHT22;64356;45.638;13.764;2022-10-17T04:33:22;22.40;62.60
75738;DHT22;64356;45.638;13.764;2022-10-17T04:36:04;22.40;62.60
75738;DHT22;64356;45.638;13.764;2022-10-17T04:38:31;22.40;62.60
75738;DHT22;64356;45.638;13.764;2022-10-17T04:40:57;22.40;62.60
75738;DHT22;64356;45.638;13.764;2022-10-17T04:43:24;22.40;62.60
75738;DHT22;64356;45.638;13.764;2022-10-17T04:45:50;22.40;62.60
75738;DHT22;64356;45.638;13.764;2022-10-17T04:48:16;22.40;62.60
75738;DHT22;64356;45.638;13.764;2022-10-17T04:50:52;22.40;63.10
75738;DHT22;64356;45.638;13.764;2022-10-17T04:53:18;22.40;62.60
75738;DHT22;64356;45.638;13.764;2022-10-17T04:55:44;22.40;62.60
75738;DHT22;64356;45.638;13.764;2022-10-17T04:58:09;22.40;63.30
75738;DHT22;64356;45.638;13.764;2022-10-17T05:00:35;22.40;63.80
75738;DHT22;64356;45.638;13.764;2022-10-17T05:03:00;22.50;64.90
75738;DHT22;64356;45.638;13.764;2022-10-17T05:05:26;22.50;65.30
75738;DHT22;64356;45.638;13.764;2022-10-17T05:07:52;22.50;65.20
75738;DHT22;64356;45.638;13.764;2022-10-17T05:10:18;22.50;65.20
75738;DHT22;64356;45.638;13.764;2022-10-17T05:12:46;22.60;65.30
75738;DHT22;64356;45.638;13.764;2022-10-17T05:15:12;22.50;65.30
75738;DHT22;64356;45.638;13.764;2022-10-17T05:17:37;22.50;65.20
75738;DHT22;64356;45.638;13.764;2022-10-17T05:20:03;22.50;65.30
75738;DHT22;64356;45.638;13.764;2022-10-17T05:22:29;22.50;65.30
75738;DHT22;64356;45.638;13.764;2022-10-17T05:24:54;22.50;65.30
75738;DHT22;64356;45.638;13.764;2022-10-17T05:27:20;22.50;65.30
75738;DHT22;64356;45.638;13.764;2022-10-17T05:29:46;22.60;65.40
75738;DHT22;64356;45.638;13.764;2022-10-17T05:32:11;22.50;65.30
75738;DHT22;64356;45.638;13.764;2022-10-17T05:34:37;22.50;65.40
75738;DHT22;64356;45.638;13.764;2022-10-17T05:37:03;22.50;65.50
75738;DHT22;64356;45.638;13.764;2022-10-17T05:39:28;22.50;65.60
75738;DHT22;64356;45.638;13.764;2022-10-17T05:41:54;22.50;65.50
75738;DHT22;64356;45.638;13.764;2022-10-17T05:44:20;22.50;65.60
75738;DHT22;64356;45.638;13.764;2022-10-17T05:46:47;22.50;65.70
75738;DHT22;64356;45.638;13.764;2022-10-17T05:49:14;22.60;65.60
75738;DHT22;64356;45.638;13.764;2022-10-17T05:51:39;22.50;65.70
75738;DHT22;64356;45.638;13.764;2022-10-17T05:54:05;22.50;65.70
75738;DHT22;64356;45.638;13.764;2022-10-17T05:56:32;22.60;65.70
75738;DHT22;64356;45.638;13.764;2022-10-17T05:58:57;22.60;65.90
75738;DHT22;64356;45.638;13.764;2022-10-17T06:01:23;22.50;65.80
75738;DHT22;64356;45.638;13.764;2022-10-17T06:03:49;22.60;66.00
75738;DHT22;64356;45.638;13.764;2022-10-17T06:06:15;22.60;66.00
75738;DHT22;64356;45.638;13.764;2022-10-17T06:08:42;22.60;66.10
75738;DHT22;64356;45.638;13.764;2022-10-17T06:11:08;22.60;66.10
75738;DHT22;64356;45.638;13.764;2022-10-17T06:13:34;22.60;64.70
75738;DHT22;64356;45.638;13.764;2022-10-17T06:15:59;22.40;61.40
75738;DHT22;64356;45.638;13.764;2022-10-17T06:18:25;22.30;61.10
75738;DHT22;64356;45.638;13.764;2022-10-17T06:20:51;22.20;60.30
75738;DHT22;64356;45.638;13.764;2022-10-17T06:23:17;22.10;59.50
75738;DHT22;64356;45.638;13.764;2022-10-17T06:25:43;22.00;59.80
75738;DHT22;64356;45.638;13.764;2022-10-17T06:28:08;22.00;59.80
75738;DHT22;64356;45.638;13.764;2022-10-17T06:30:38;22.00;59.60
75738;DHT22;64356;45.638;13.764;2022-10-17T06:33:03;22.00;59.30
75738;DHT22;64356;45.638;13.764;2022-10-17T06:35:30;22.00;59.60
75738;DHT22;64356;45.638;13.764;2022-10-17T06:37:55;22.00;59.50
75738;DHT22;64356;45.638;13.764;2022-10-17T06:40:21;22.00;59.80
75738;DHT22;64356;45.638;13.764;2022-10-17T06:42:47;22.00;59.50
75738;DHT22;64356;45.638;13.764;2022-10-17T06:45:13;22.00;59.40
75738;DHT22;64356;45.638;13.764;2022-10-17T06:47:38;22.00;59.50
75738;DHT22;64356;45.638;13.764;2022-10-17T06:50:04;22.00;58.90
75738;DHT22;64356;45.638;13.764;2022-10-17T06:52:30;22.00;59.00
75738;DHT22;64356;45.638;13.764;2022-10-17T06:54:56;22.00;58.90
75738;DHT22;64356;45.638;13.764;2022-10-17T06:57:21;22.00;58.60
75738;DHT22;64356;45.638;13.764;2022-10-17T06:59:47;22.00;58.80
75738;DHT22;64356;45.638;13.764;2022-10-17T07:02:13;22.00;59.00
75738;DHT22;64356;45.638;13.764;2022-10-17T07:04:38;22.00;58.70
75738;DHT22;64356;45.638;13.764;2022-10-17T07:07:04;22.00;58.70
75738;DHT22;64356;45.638;13.764;2022-10-17T07:09:30;22.10;59.10
75738;DHT22;64356;45.638;13.764;2022-10-17T07:11:57;22.00;58.60
75738;DHT22;64356;45.638;13.764;2022-10-17T07:14:23;21.80;58.10
75738;DHT22;64356;45.638;13.764;2022-10-17T07:16:56;21.60;59.00
75738;DHT22;64356;45.638;13.764;2022-10-17T07:19:22;21.50;59.60
75738;DHT22;64356;45.638;13.764;2022-10-17T07:21:48;21.40;59.90
75738;DHT22;64356;45.638;13.764;2022-10-17T07:24:14;21.40;60.40
75738;DHT22;64356;45.638;13.764;2022-10-17T07:26:39;21.40;60.40
75738;DHT22;64356;45.638;13.764;2022-10-17T07:29:05;21.40;60.40
75738;DHT22;64356;45.638;13.764;2022-10-17T07:31:32;21.40;60.60
75738;DHT22;64356;45.638;13.764;2022-10-17T07:33:59;21.40;60.90
75738;DHT22;64356;45.638;13.764;2022-10-17T07:36:24;21.40;60.70
75738;DHT22;64356;45.638;13.764;2022-10-17T07:38:50;21.50;61.40
75738;DHT22;64356;45.638;13.764;2022-10-17T07:41:16;21.60;60.90
75738;DHT22;64356;45.638;13.764;2022-10-17T07:43:43;21.80;60.90
75738;DHT22;64356;45.638;13.764;2022-10-17T07:46:09;21.80;61.00
75738;DHT22;64356;45.638;13.764;2022-10-17T07:48:36;21.90;60.80
75738;DHT22;64356;45.638;13.764;2022-10-17T07:51:05;21.90;61.00
75738;DHT22;64356;45.638;13.764;2022-10-17T07:53:31;21.90;61.00
75738;DHT22;64356;45.638;13.764;2022-10-17T07:56:01;21.90;61.00
75738;DHT22;64356;45.638;13.764;2022-10-17T07:58:27;21.60;60.00
75738;DHT22;64356;45.638;13.764;2022-10-17T08:00:53;21.30;59.80
75738;DHT22;64356;45.638;13.764;2022-10-17T08:03:19;21.20;60.50
75738;DHT22;64356;45.638;13.764;2022-10-17T08:05:44;21.10;61.10
75738;DHT22;64356;45.638;13.764;2022-10-17T08:08:10;21.10;60.90
75738;DHT22;64356;45.638;13.764;2022-10-17T08:10:36;21.00;61.40
75738;DHT22;64356;45.638;13.764;2022-10-17T08:13:02;20.90;61.00
75738;DHT22;64356;45.638;13.764;2022-10-17T08:15:28;21.00;62.20
75738;DHT22;64356;45.638;13.764;2022-10-17T08:17:53;21.10;62.30
75738;DHT22;64356;45.638;13.764;2022-10-17T08:20:20;21.20;61.60
75738;DHT22;64356;45.638;13.764;2022-10-17T08:22:53;21.30;62.00
75738;DHT22;64356;45.638;13.764;2022-10-17T08:25:19;21.30;61.70
75738;DHT22;64356;45.638;13.764;2022-10-17T08:27:44;21.40;61.70
75738;DHT22;64356;45.638;13.764;2022-10-17T08:30:10;21.40;62.00
75738;DHT22;64356;45.638;13.764;2022-10-17T08:32:36;21.40;61.50
75738;DHT22;64356;45.638;13.764;2022-10-17T08:35:01;21.40;61.40
75738;DHT22;64356;45.638;13.764;2022-10-17T08:37:27;21.40;61.30
75738;DHT22;64356;45.638;13.764;2022-10-17T08:39:54;21.40;61.40
75738;DHT22;64356;45.638;13.764;2022-10-17T08:48:15;21.50;62.80
75738;DHT22;64356;45.638;13.764;2022-10-17T08:50:49;21.50;63.40
75738;DHT22;64356;45.638;13.764;2022-10-17T08:55:52;21.50;63.10
75738;DHT22;64356;45.638;13.764;2022-10-17T08:58:30;21.60;64.10
75738;DHT22;64356;45.638;13.764;2022-10-17T09:06:34;21.60;64.00
75738;DHT22;64356;45.638;13.764;2022-10-17T09:20:03;21.30;65.20
75738;DHT22;64356;45.638;13.764;2022-10-17T09:22:38;21.40;64.90
75738;DHT22;64356;45.638;13.764;2022-10-17T09:25:11;21.40;64.00
75738;DHT22;64356;45.638;13.764;2022-10-17T09:27:41;21.40;64.80
75738;DHT22;64356;45.638;13.764;2022-10-17T09:33:18;21.30;65.10
75738;DHT22;64356;45.638;13.764;2022-10-17T09:35:45;21.40;65.30
75738;DHT22;64356;45.638;13.764;2022-10-17T09:38:22;21.50;64.70
75738;DHT22;64356;45.638;13.764;2022-10-17T09:40:59;21.60;64.60
75738;DHT22;64356;45.638;13.764;2022-10-17T09:43:25;21.20;64.00
75738;DHT22;64356;45.638;13.764;2022-10-17T09:48:34;20.60;65.20
75738;DHT22;64356;45.638;13.764;2022-10-17T09:51:02;20.50;66.50
75738;DHT22;64356;45.638;13.764;2022-10-17T09:53:35;20.80;66.60
75738;DHT22;64356;45.638;13.764;2022-10-17T09:56:08;20.80;66.30
75738;DHT22;64356;45.638;13.764;2022-10-17T09:58:56;20.90;66.90
75738;DHT22;64356;45.638;13.764;2022-10-17T10:01:28;20.60;66.50
75738;DHT22;64356;45.638;13.764;2022-10-17T10:04:14;20.50;66.90
75738;DHT22;64356;45.638;13.764;2022-10-17T10:07:02;20.50;67.40
75738;DHT22;64356;45.638;13.764;2022-10-17T10:09:33;20.80;67.50
75738;DHT22;64356;45.638;13.764;2022-10-17T10:12:05;21.10;66.60
75738;DHT22;64356;45.638;13.764;2022-10-17T10:17:05;21.40;65.70
75738;DHT22;64356;45.638;13.764;2022-10-17T10:19:36;21.50;65.40
75738;DHT22;64356;45.638;13.764;2022-10-17T10:22:16;21.60;65.20
75738;DHT22;64356;45.638;13.764;2022-10-17T10:24:42;21.30;64.70
75738;DHT22;64356;45.638;13.764;2022-10-17T10:27:15;21.10;66.00
75738;DHT22;64356;45.638;13.764;2022-10-17T10:29:51;20.90;66.70
75738;DHT22;64356;45.638;13.764;2022-10-17T10:32:24;20.60;68.20
75738;DHT22;64356;45.638;13.764;2022-10-17T10:35:17;20.60;68.70
75738;DHT22;64356;45.638;13.764;2022-10-17T10:37:47;20.70;68.40
75738;DHT22;64356;45.638;13.764;2022-10-17T10:42:46;21.00;67.40
75738;DHT22;64356;45.638;13.764;2022-10-17T10:45:40;20.80;67.60
75738;DHT22;64356;45.638;13.764;2022-10-17T10:56:40;21.70;67.80
75738;DHT22;64356;45.638;13.764;2022-10-17T11:12:38;22.10;66.30
75738;DHT22;64356;45.638;13.764;2022-10-17T11:15:29;22.10;66.20
75738;DHT22;64356;45.638;13.764;2022-10-17T11:18:00;22.10;66.20
75738;DHT22;64356;45.638;13.764;2022-10-17T11:23:42;22.20;66.20
75738;DHT22;64356;45.638;13.764;2022-10-17T11:26:15;22.20;66.40
75738;DHT22;64356;45.638;13.764;2022-10-17T11:28:42;22.20;66.50
75738;DHT22;64356;45.638;13.764;2022-10-17T11:31:15;22.20;66.90
75738;DHT22;64356;45.638;13.764;2022-10-17T11:33:57;22.30;67.20
75738;DHT22;64356;45.638;13.764;2022-10-17T11:36:37;22.30;68.30
75738;DHT22;64356;45.638;13.764;2022-10-17T11:39:25;22.30;68.50
75738;DHT22;64356;45.638;13.764;2022-10-17T11:41:58;22.30;70.20
75738;DHT22;64356;45.638;13.764;2022-10-17T11:44:38;22.40;71.10
75738;DHT22;64356;45.638;13.764;2022-10-17T11:47:31;22.40;71.10
75738;DHT22;64356;45.638;13.764;2022-10-17T11:55:15;22.40;70.50
75738;DHT22;64356;45.638;13.764;2022-10-17T12:03:39;22.50;69.70
75738;DHT22;64356;45.638;13.764;2022-10-17T12:12:08;22.50;68.10
75738;DHT22;64356;45.638;13.764;2022-10-17T12:14:47;22.50;68.70
75738;DHT22;64356;45.638;13.764;2022-10-17T12:17:34;22.50;68.80
75738;DHT22;64356;45.638;13.764;2022-10-17T12:25:21;22.60;68.30
75738;DHT22;64356;45.638;13.764;2022-10-17T12:27:49;22.50;68.90
75738;DHT22;64356;45.638;13.764;2022-10-17T12:30:24;22.60;69.30
75738;DHT22;64356;45.638;13.764;2022-10-17T12:35:24;22.60;70.60
75738;DHT22;64356;45.638;13.764;2022-10-17T12:45:58;22.60;70.60
75738;DHT22;64356;45.638;13.764;2022-10-17T12:49:03;22.60;70.60
75738;DHT22;64356;45.638;13.764;2022-10-17T12:51:28;22.70;70.60
75738;DHT22;64356;45.638;13.764;2022-10-17T12:54:15;22.70;70.70
75738;DHT22;64356;45.638;13.764;2022-10-17T12:56:43;22.70;70.30
75738;DHT22;64356;45.638;13.764;2022-10-17T12:59:15;22.70;70.30
75738;DHT22;64356;45.638;13.764;2022-10-17T13:01:48;22.70;70.20
75738;DHT22;64356;45.638;13.764;2022-10-17T13:04:15;22.70;70.20
75738;DHT22;64356;45.638;13.764;2022-10-17T13:06:46;22.70;70.10
75738;DHT22;64356;45.638;13.764;2022-10-17T13:09:26;22.70;70.00
75738;DHT22;64356;45.638;13.764;2022-10-17T13:11:53;22.70;69.80
75738;DHT22;64356;45.638;13.764;2022-10-17T13:14:21;22.70;69.60
75738;DHT22;64356;45.638;13.764;2022-10-17T13:17:03;22.70;69.30
75738;DHT22;64356;45.638;13.764;2022-10-17T13:19:44;22.70;69.20
75738;DHT22;64356;45.638;13.764;2022-10-17T13:24:43;22.70;68.60
75738;DHT22;64356;45.638;13.764;2022-10-17T13:27:25;22.70;68.20
75738;DHT22;64356;45.638;13.764;2022-10-17T13:29:51;22.70;68.00
75738;DHT22;64356;45.638;13.764;2022-10-17T13:32:17;22.70;67.50
75738;DHT22;64356;45.638;13.764;2022-10-17T13:34:43;22.70;67.20
75738;DHT22;64356;45.638;13.764;2022-10-17T13:37:13;22.70;67.00
75738;DHT22;64356;45.638;13.764;2022-10-17T13:39:42;22.70;66.90
75738;DHT22;64356;45.638;13.764;2022-10-17T13:42:38;22.70;66.50
75738;DHT22;64356;45.638;13.764;2022-10-17T13:45:19;22.70;66.60
75738;DHT22;64356;45.638;13.764;2022-10-17T13:47:46;22.70;66.30
75738;DHT22;64356;45.638;13.764;2022-10-17T13:50:23;22.70;66.40
75738;DHT22;64356;45.638;13.764;2022-10-17T13:53:05;22.70;66.40
75738;DHT22;64356;45.638;13.764;2022-10-17T13:55:31;22.70;66.40
75738;DHT22;64356;45.638;13.764;2022-10-17T13:58:17;22.70;66.60
75738;DHT22;64356;45.638;13.764;2022-10-17T14:00:46;22.70;66.80
75738;DHT22;64356;45.638;13.764;2022-10-17T14:03:13;22.70;66.90
75738;DHT22;64356;45.638;13.764;2022-10-17T14:08:28;22.80;67.00
75738;DHT22;64356;45.638;13.764;2022-10-17T14:10:55;22.80;67.10
75738;DHT22;64356;45.638;13.764;2022-10-17T14:13:23;22.80;67.20
75738;DHT22;64356;45.638;13.764;2022-10-17T14:15:52;22.80;67.20
75738;DHT22;64356;45.638;13.764;2022-10-17T14:18:28;22.80;67.20
75738;DHT22;64356;45.638;13.764;2022-10-17T14:20:54;22.80;67.20
75738;DHT22;64356;45.638;13.764;2022-10-17T14:26:18;22.80;67.10
75738;DHT22;64356;45.638;13.764;2022-10-17T14:29:02;22.80;66.90
75738;DHT22;64356;45.638;13.764;2022-10-17T14:31:30;22.80;67.10
75738;DHT22;64356;45.638;13.764;2022-10-17T14:33:56;22.80;67.20
75738;DHT22;64356;45.638;13.764;2022-10-17T14:36:32;22.80;67.00
75738;DHT22;64356;45.638;13.764;2022-10-17T14:39:02;22.80;67.00
75738;DHT22;64356;45.638;13.764;2022-10-17T14:41:33;22.80;67.00
75738;DHT22;64356;45.638;13.764;2022-10-17T14:44:05;22.80;67.10
75738;DHT22;64356;45.638;13.764;2022-10-17T14:46:33;22.80;67.10
75738;DHT22;64356;45.638;13.764;2022-10-17T14:49:05;22.80;67.10
75738;DHT22;64356;45.638;13.764;2022-10-17T14:51:31;22.80;67.10
75738;DHT22;64356;45.638;13.764;2022-10-17T14:54:27;22.80;67.10
75738;DHT22;64356;45.638;13.764;2022-10-17T14:56:54;22.80;67.10
75738;DHT22;64356;45.638;13.764;2022-10-17T14:59:20;22.80;67.10
75738;DHT22;64356;45.638;13.764;2022-10-17T15:01:50;22.80;67.10
75738;DHT22;64356;45.638;13.764;2022-10-17T15:04:16;22.80;67.10
75738;DHT22;64356;45.638;13.764;2022-10-17T15:06:42;22.80;67.10
75738;DHT22;64356;45.638;13.764;2022-10-17T15:09:09;22.80;67.10
75738;DHT22;64356;45.638;13.764;2022-10-17T15:11:35;22.80;67.10
75738;DHT22;64356;45.638;13.764;2022-10-17T15:14:01;22.80;67.00
75738;DHT22;64356;45.638;13.764;2022-10-17T15:16:30;22.80;67.10
75738;DHT22;64356;45.638;13.764;2022-10-17T15:18:56;22.80;67.10
75738;DHT22;64356;45.638;13.764;2022-10-17T15:21:24;22.80;67.10
75738;DHT22;64356;45.638;13.764;2022-10-17T15:23:50;22.70;67.10
75738;DHT22;64356;45.638;13.764;2022-10-17T15:26:21;22.70;67.10
75738;DHT22;64356;45.638;13.764;2022-10-17T15:28:48;22.70;67.10
75738;DHT22;64356;45.638;13.764;2022-10-17T15:31:16;22.70;67.10
75738;DHT22;64356;45.638;13.764;2022-10-17T15:33:43;22.70;67.20
75738;DHT22;64356;45.638;13.764;2022-10-17T15:36:38;22.70;67.10
75738;DHT22;64356;45.638;13.764;2022-10-17T15:39:04;22.70;67.10
75738;DHT22;64356;45.638;13.764;2022-10-17T15:41:31;22.70;67.20
75738;DHT22;64356;45.638;13.764;2022-10-17T15:43:58;22.70;67.10
75738;DHT22;64356;45.638;13.764;2022-10-17T15:46:29;22.70;67.20
75738;DHT22;64356;45.638;13.764;2022-10-17T15:49:01;22.70;67.00
75738;DHT22;64356;45.638;13.764;2022-10-17T15:51:27;22.70;67.10
75738;DHT22;64356;45.638;13.764;2022-10-17T15:53:52;22.70;67.10
75738;DHT22;64356;45.638;13.764;2022-10-17T15:56:27;22.70;67.20
75738;DHT22;64356;45.638;13.764;2022-10-17T15:58:53;22.70;67.20
75738;DHT22;64356;45.638;13.764;2022-10-17T16:01:22;22.70;67.20
75738;DHT22;64356;45.638;13.764;2022-10-17T16:03:48;22.70;67.30
75738;DHT22;64356;45.638;13.764;2022-10-17T16:06:16;22.80;67.30
75738;DHT22;64356;45.638;13.764;2022-10-17T16:08:42;22.80;67.30
75738;DHT22;64356;45.638;13.764;2022-10-17T16:11:53;22.80;67.30
75738;DHT22;64356;45.638;13.764;2022-10-17T16:14:02;22.80;67.30
75738;DHT22;64356;45.638;13.764;2022-10-17T16:16:28;22.80;67.30
75738;DHT22;64356;45.638;13.764;2022-10-17T16:18:54;22.80;67.30
75738;DHT22;64356;45.638;13.764;2022-10-17T16:21:24;22.80;67.30
75738;DHT22;64356;45.638;13.764;2022-10-17T16:23:51;22.80;67.40
75738;DHT22;64356;45.638;13.764;2022-10-17T16:26:17;22.80;67.50
75738;DHT22;64356;45.638;13.764;2022-10-17T16:28:43;22.80;67.90
75738;DHT22;64356;45.638;13.764;2022-10-17T16:31:42;22.80;67.40
75738;DHT22;64356;45.638;13.764;2022-10-17T16:34:10;22.80;67.50
75738;DHT22;64356;45.638;13.764;2022-10-17T16:36:37;22.80;67.60
75738;DHT22;64356;45.638;13.764;2022-10-17T16:39:03;22.80;67.70
75738;DHT22;64356;45.638;13.764;2022-10-17T16:41:31;22.80;67.80
75738;DHT22;64356;45.638;13.764;2022-10-17T16:44:00;22.90;67.80
75738;DHT22;64356;45.638;13.764;2022-10-17T16:46:28;22.90;67.80
75738;DHT22;64356;45.638;13.764;2022-10-17T16:48:54;22.90;68.10
75738;DHT22;64356;45.638;13.764;2022-10-17T16:51:20;22.90;68.00
75738;DHT22;64356;45.638;13.764;2022-10-17T16:53:47;22.90;68.20
75738;DHT22;64356;45.638;13.764;2022-10-17T16:56:16;22.90;68.20
75738;DHT22;64356;45.638;13.764;2022-10-17T16:58:42;22.90;68.30
75738;DHT22;64356;45.638;13.764;2022-10-17T17:01:16;22.90;68.00
75738;DHT22;64356;45.638;13.764;2022-10-17T17:03:44;22.90;67.90
75738;DHT22;64356;45.638;13.764;2022-10-17T17:06:15;22.90;67.70
75738;DHT22;64356;45.638;13.764;2022-10-17T17:08:42;22.80;67.60
75738;DHT22;64356;45.638;13.764;2022-10-17T17:11:10;22.90;67.70
75738;DHT22;64356;45.638;13.764;2022-10-17T17:13:36;22.80;67.80
75738;DHT22;64356;45.638;13.764;2022-10-17T17:16:11;22.90;68.50
75738;DHT22;64356;45.638;13.764;2022-10-17T17:18:38;22.90;68.80
75738;DHT22;64356;45.638;13.764;2022-10-17T17:21:06;22.90;68.90
75738;DHT22;64356;45.638;13.764;2022-10-17T17:23:33;22.90;68.90
75738;DHT22;64356;45.638;13.764;2022-10-17T17:26:04;22.90;68.80
75738;DHT22;64356;45.638;13.764;2022-10-17T17:28:30;22.90;68.80
75738;DHT22;64356;45.638;13.764;2022-10-17T17:30:56;22.90;68.90
75738;DHT22;64356;45.638;13.764;2022-10-17T17:33:23;22.90;68.90
75738;DHT22;64356;45.638;13.764;2022-10-17T17:35:56;22.80;68.90
75738;DHT22;64356;45.638;13.764;2022-10-17T17:38:23;22.80;68.90
75738;DHT22;64356;45.638;13.764;2022-10-17T17:40:50;22.80;68.90